Time,TemperatureF,DewpointF,PressureIn,WindDirection,WindDirectionDegrees,WindSpeedMPH,WindSpeedGustMPH,Humidity,HourlyPrecipIn,Conditions,Clouds,dailyrainin,SoftwareType,DateUTC
2013-01-24 00:00:00,6.5,-0.3,30.81,NNE,22,0.0,0.0,73,0.00,,,0.00,Wunderground v.1.15,2013-01-24 07:00:00,
2013-01-24 00:05:00,6.1,-0.4,30.81,NNE,22,2.0,4.0,74,0.00,,,0.00,Wunderground v.1.15,2013-01-24 07:05:00,
2013-01-24 00:11:00,6.3,0.1,30.80,NNE,22,3.0,3.0,75,0.00,,,0.00,Wunderground v.1.15,2013-01-24 07:11:00,
2013-01-24 00:16:00,5.9,-0.3,30.81,NNE,21,4.0,4.0,75,0.00,,,0.00,Wunderground v.1.15,2013-01-24 07:16:00,
2013-01-24 00:22:00,5.6,-0.9,30.81,NNE,21,3.0,5.0,74,0.00,,,0.00,Wunderground v.1.15,2013-01-24 07:22:00,
2013-01-24 00:27:00,5.2,-1.3,30.81,NNE,22,0.0,5.0,74,0.00,,,0.00,Wunderground v.1.15,2013-01-24 07:27:00,
2013-01-24 00:33:00,5.4,-0.5,30.82,NNE,21,0.0,2.0,76,0.00,,,0.00,Wunderground v.1.15,2013-01-24 07:33:00,
2013-01-24 00:38:00,5.6,-0.6,30.81,NNE,22,0.0,2.0,75,0.00,,,0.00,Wunderground v.1.15,2013-01-24 07:38:00,
2013-01-24 00:44:00,6.1,0.4,30.81,NNE,22,3.0,3.0,77,0.00,,,0.00,Wunderground v.1.15,2013-01-24 07:44:00,
2013-01-24 00:50:00,7.4,2.0,30.81,NNE,22,1.0,1.0,78,0.00,,,0.00,Wunderground v.1.15,2013-01-24 07:50:00,
2013-01-24 00:56:00,8.4,2.9,30.80,NNE,22,2.0,3.0,78,0.00,,,0.00,Wunderground v.1.15,2013-01-24 07:56:00,
2013-01-24 01:01:00,8.4,2.1,30.79,NNE,22,1.0,2.0,75,0.00,,,0.00,Wunderground v.1.15,2013-01-24 08:01:00,
2013-01-24 01:07:00,8.1,1.5,30.79,NNE,22,2.0,2.0,74,0.00,,,0.00,Wunderground v.1.15,2013-01-24 08:07:00,
2013-01-24 01:12:00,7.6,1.0,30.79,NNE,22,4.0,4.0,74,0.00,,,0.00,Wunderground v.1.15,2013-01-24 08:12:00,
2013-01-24 01:18:00,7.6,1.3,30.79,NNE,21,3.0,4.0,75,0.00,,,0.00,Wunderground v.1.15,2013-01-24 08:18:00,
2013-01-24 01:23:00,7.5,0.9,30.80,NNE,21,0.0,3.0,74,0.00,,,0.00,Wunderground v.1.15,2013-01-24 08:23:00,
2013-01-24 01:29:00,7.4,0.8,30.80,NNE,21,2.0,3.0,74,0.00,,,0.00,Wunderground v.1.15,2013-01-24 08:29:00,
2013-01-24 01:34:00,7.0,0.2,30.79,NNE,22,2.0,3.0,73,0.00,,,0.00,Wunderground v.1.15,2013-01-24 08:34:00,
2013-01-24 01:40:00,4.4,-3.2,30.79,NNE,21,4.0,4.0,70,0.00,,,0.00,Wunderground v.1.15,2013-01-24 08:40:00,
2013-01-24 01:46:00,3.4,-3.6,30.79,NNE,22,3.0,4.0,72,0.00,,,0.00,Wunderground v.1.15,2013-01-24 08:46:00,
2013-01-24 01:51:00,3.0,-3.4,30.79,NNE,22,6.0,6.0,74,0.00,,,0.00,Wunderground v.1.15,2013-01-24 08:51:00,
2013-01-24 01:57:00,3.8,-2.1,30.79,NNE,22,1.0,6.0,76,0.00,,,0.00,Wunderground v.1.15,2013-01-24 08:57:00,
2013-01-24 02:02:00,4.1,-1.8,30.78,NNE,21,4.0,4.0,76,0.00,,,0.00,Wunderground v.1.15,2013-01-24 09:02:00,
2013-01-24 02:07:00,4.6,-1.0,30.79,NNE,21,3.0,5.0,77,0.00,,,0.00,Wunderground v.1.15,2013-01-24 09:07:00,
2013-01-24 02:12:00,5.3,-0.1,30.79,NNE,22,3.0,4.0,78,0.00,,,0.00,Wunderground v.1.15,2013-01-24 09:12:00,
2013-01-24 02:17:00,5.7,0.3,30.79,NNE,22,2.0,4.0,78,0.00,,,0.00,Wunderground v.1.15,2013-01-24 09:17:00,
2013-01-24 02:22:00,6.1,0.4,30.79,NNE,21,1.0,2.0,77,0.00,,,0.00,Wunderground v.1.15,2013-01-24 09:22:00,
2013-01-24 02:27:00,6.5,1.1,30.79,NNE,22,1.0,2.0,78,0.00,,,0.00,Wunderground v.1.15,2013-01-24 09:27:00,
2013-01-24 02:32:00,7.4,2.3,30.79,NNE,21,1.0,2.0,79,0.00,,,0.00,Wunderground v.1.15,2013-01-24 09:32:00,
2013-01-24 02:37:00,8.7,3.8,30.78,NNE,21,1.0,3.0,80,0.00,,,0.00,Wunderground v.1.15,2013-01-24 09:37:00,
2013-01-24 02:42:00,9.7,4.5,30.78,NNE,22,2.0,2.0,79,0.00,,,0.00,Wunderground v.1.15,2013-01-24 09:42:00,
2013-01-24 02:47:00,10.6,5.4,30.78,NNE,22,2.0,2.0,79,0.00,,,0.00,Wunderground v.1.15,2013-01-24 09:47:00,
2013-01-24 02:52:00,10.9,4.8,30.78,NNE,21,0.0,2.0,76,0.00,,,0.00,Wunderground v.1.15,2013-01-24 09:52:00,
2013-01-24 02:57:00,10.9,4.5,30.78,NNE,22,0.0,2.0,75,0.00,,,0.00,Wunderground v.1.15,2013-01-24 09:57:00,
2013-01-24 03:02:00,11.0,4.3,30.77,NNE,22,2.0,2.0,74,0.00,,,0.00,Wunderground v.1.15,2013-01-24 10:02:00,
2013-01-24 03:07:00,11.1,4.4,30.77,NNE,21,0.0,3.0,74,0.00,,,0.00,Wunderground v.1.15,2013-01-24 10:07:00,
2013-01-24 03:12:00,11.2,4.2,30.77,NNE,22,0.0,1.0,73,0.00,,,0.00,Wunderground v.1.15,2013-01-24 10:12:00,
2013-01-24 03:17:00,10.5,2.9,30.78,NNE,22,1.0,3.0,71,0.00,,,0.00,Wunderground v.1.15,2013-01-24 10:17:00,
2013-01-24 03:22:00,9.1,1.0,30.77,NNE,21,1.0,3.0,69,0.00,,,0.00,Wunderground v.1.15,2013-01-24 10:22:00,
2013-01-24 03:27:00,8.3,0.8,30.77,NNE,22,2.0,3.0,71,0.00,,,0.00,Wunderground v.1.15,2013-01-24 10:27:00,
2013-01-24 03:32:00,8.1,0.9,30.77,NNE,22,1.0,2.0,72,0.00,,,0.00,Wunderground v.1.15,2013-01-24 10:32:00,
2013-01-24 03:37:00,8.1,1.2,30.77,NNE,21,2.0,2.0,73,0.00,,,0.00,Wunderground v.1.15,2013-01-24 10:37:00,
2013-01-24 03:42:00,8.3,1.7,30.77,NNE,22,1.0,2.0,74,0.00,,,0.00,Wunderground v.1.15,2013-01-24 10:42:00,
2013-01-24 03:48:00,8.6,2.3,30.76,NNE,22,1.0,3.0,75,0.00,,,0.00,Wunderground v.1.15,2013-01-24 10:48:00,
2013-01-24 03:53:00,9.1,3.1,30.76,NNE,21,3.0,3.0,76,0.00,,,0.00,Wunderground v.1.15,2013-01-24 10:53:00,
2013-01-24 03:58:00,9.6,3.3,30.76,NNE,22,3.0,3.0,75,0.00,,,0.00,Wunderground v.1.15,2013-01-24 10:58:00,
2013-01-24 04:03:00,8.7,1.5,30.76,NNE,22,3.0,4.0,72,0.00,,,0.00,Wunderground v.1.15,2013-01-24 11:03:00,
2013-01-24 04:08:00,8.1,1.2,30.76,NNE,22,3.0,4.0,73,0.00,,,0.00,Wunderground v.1.15,2013-01-24 11:08:00,
2013-01-24 04:13:00,6.5,-1.2,30.76,NNE,21,3.0,4.0,70,0.00,,,0.00,Wunderground v.1.15,2013-01-24 11:13:00,
2013-01-24 04:18:00,4.9,-2.5,30.76,NNE,22,2.0,4.0,71,0.00,,,0.00,Wunderground v.1.15,2013-01-24 11:18:00,
2013-01-24 04:23:00,4.7,-1.8,30.75,NNE,22,1.0,3.0,74,0.00,,,0.00,Wunderground v.1.15,2013-01-24 11:23:00,
2013-01-24 04:28:00,5.3,-0.6,30.76,NNE,21,2.0,3.0,76,0.00,,,0.00,Wunderground v.1.15,2013-01-24 11:28:00,
2013-01-24 04:33:00,5.6,-0.1,30.75,NNE,21,2.0,2.0,77,0.00,,,0.00,Wunderground v.1.15,2013-01-24 11:33:00,
2013-01-24 04:38:00,5.7,-0.2,30.76,NNE,22,2.0,2.0,76,0.00,,,0.00,Wunderground v.1.15,2013-01-24 11:38:00,
2013-01-24 04:43:00,5.4,-0.5,30.76,NNE,21,0.0,2.0,76,0.00,,,0.00,Wunderground v.1.15,2013-01-24 11:43:00,
2013-01-24 04:48:00,5.5,-0.4,30.76,NNE,22,1.0,3.0,76,0.00,,,0.00,Wunderground v.1.15,2013-01-24 11:48:00,
2013-01-24 04:53:00,5.7,0.0,30.75,NNE,22,0.0,1.0,77,0.00,,,0.00,Wunderground v.1.15,2013-01-24 11:53:00,
2013-01-24 04:58:00,5.2,-0.7,30.75,NNE,22,2.0,3.0,76,0.00,,,0.00,Wunderground v.1.15,2013-01-24 11:58:00,
2013-01-24 05:03:00,4.1,-2.4,30.75,NNE,22,3.0,4.0,74,0.00,,,0.00,Wunderground v.1.15,2013-01-24 12:03:00,
2013-01-24 05:08:00,2.8,-3.9,30.75,NNE,21,3.0,4.0,73,0.00,,,0.00,Wunderground v.1.15,2013-01-24 12:08:00,
2013-01-24 05:13:00,2.9,-3.0,30.75,NNE,22,3.0,4.0,76,0.00,,,0.00,Wunderground v.1.15,2013-01-24 12:13:00,
2013-01-24 05:18:00,3.7,-1.9,30.76,NNE,22,3.0,5.0,77,0.00,,,0.00,Wunderground v.1.15,2013-01-24 12:18:00,
2013-01-24 05:23:00,2.8,-3.3,30.76,NNE,21,3.0,4.0,75,0.00,,,0.00,Wunderground v.1.15,2013-01-24 12:23:00,
2013-01-24 05:28:00,2.0,-4.1,30.77,NNE,22,4.0,5.0,75,0.00,,,0.00,Wunderground v.1.15,2013-01-24 12:28:00,
2013-01-24 05:33:00,1.3,-4.8,30.76,NNE,21,4.0,6.0,75,0.00,,,0.00,Wunderground v.1.15,2013-01-24 12:33:00,
2013-01-24 05:38:00,1.1,-4.7,30.76,NNE,22,4.0,6.0,76,0.00,,,0.00,Wunderground v.1.15,2013-01-24 12:38:00,
2013-01-24 05:43:00,2.3,-3.0,30.76,NNE,22,3.0,4.0,78,0.00,,,0.00,Wunderground v.1.15,2013-01-24 12:43:00,
2013-01-24 05:48:00,3.7,-1.1,30.76,NNE,21,2.0,4.0,80,0.00,,,0.00,Wunderground v.1.15,2013-01-24 12:48:00,
2013-01-24 05:53:00,4.3,-0.5,30.76,NNE,22,1.0,3.0,80,0.00,,,0.00,Wunderground v.1.15,2013-01-24 12:53:00,
2013-01-24 05:58:00,3.5,-1.8,30.76,NNE,22,5.0,6.0,78,0.00,,,0.00,Wunderground v.1.15,2013-01-24 12:58:00,
2013-01-24 06:03:00,2.8,-3.1,30.75,NNE,21,6.0,6.0,76,0.00,,,0.00,Wunderground v.1.15,2013-01-24 13:03:00,
2013-01-24 06:08:00,2.5,-3.1,30.76,NNE,21,1.0,6.0,77,0.00,,,0.00,Wunderground v.1.15,2013-01-24 13:08:00,
2013-01-24 06:13:00,1.4,-4.4,30.76,NNE,22,0.0,3.0,76,0.00,,,0.00,Wunderground v.1.15,2013-01-24 13:13:00,
2013-01-24 06:18:00,1.8,-3.5,30.76,NNE,22,3.0,3.0,78,0.00,,,0.00,Wunderground v.1.15,2013-01-24 13:18:00,
2013-01-24 06:23:00,2.8,-2.2,30.76,NNE,22,3.0,4.0,79,0.00,,,0.00,Wunderground v.1.15,2013-01-24 13:23:00,
2013-01-24 06:28:00,2.8,-2.5,30.75,NNE,22,2.0,4.0,78,0.00,,,0.00,Wunderground v.1.15,2013-01-24 13:28:00,
2013-01-24 06:33:00,2.7,-2.9,30.75,NNE,21,1.0,3.0,77,0.00,,,0.00,Wunderground v.1.15,2013-01-24 13:33:00,
2013-01-24 06:38:00,1.4,-4.7,30.76,NNE,22,7.0,7.0,75,0.00,,,0.00,Wunderground v.1.15,2013-01-24 13:38:00,
2013-01-24 06:43:00,0.9,-5.2,30.76,NNE,22,3.0,4.0,75,0.00,,,0.00,Wunderground v.1.15,2013-01-24 13:43:00,
2013-01-24 06:48:00,1.1,-4.4,30.77,NNE,22,3.0,4.0,77,0.00,,,0.00,Wunderground v.1.15,2013-01-24 13:48:00,
2013-01-24 06:53:00,1.5,-4.0,30.77,NNE,22,4.0,5.0,77,0.00,,,0.00,Wunderground v.1.15,2013-01-24 13:53:00,
2013-01-24 06:58:00,2.5,-2.5,30.76,NNE,22,3.0,6.0,79,0.00,,,0.00,Wunderground v.1.15,2013-01-24 13:58:00,
2013-01-24 07:03:00,2.6,-2.7,30.76,NNE,22,5.0,5.0,78,0.00,,,0.00,Wunderground v.1.15,2013-01-24 14:03:00,
2013-01-24 07:09:00,3.2,-2.1,30.75,NNE,22,3.0,5.0,78,0.00,,,0.00,Wunderground v.1.15,2013-01-24 14:09:00,
2013-01-24 07:14:00,2.9,-2.7,30.77,NNE,22,3.0,8.0,77,0.00,,,0.00,Wunderground v.1.15,2013-01-24 14:14:00,
2013-01-24 07:19:00,2.4,-3.4,30.76,NNE,22,5.0,8.0,76,0.00,,,0.00,Wunderground v.1.15,2013-01-24 14:19:00,
2013-01-24 07:24:00,3.7,-1.4,30.76,NNE,22,4.0,6.0,79,0.00,,,0.00,Wunderground v.1.15,2013-01-24 14:24:00,
2013-01-24 07:29:00,5.6,0.8,30.75,NNE,22,3.0,6.0,80,0.00,,,0.00,Wunderground v.1.15,2013-01-24 14:29:00,
2013-01-24 07:34:00,5.7,0.3,30.75,NNE,22,4.0,5.0,78,0.00,,,0.00,Wunderground v.1.15,2013-01-24 14:34:00,
2013-01-24 07:39:00,5.0,-1.2,30.76,NNE,22,5.0,5.0,75,0.00,,,0.00,Wunderground v.1.15,2013-01-24 14:39:00,
2013-01-24 07:44:00,4.4,-2.1,30.76,NNE,22,2.0,6.0,74,0.00,,,0.00,Wunderground v.1.15,2013-01-24 14:44:00,
2013-01-24 07:49:00,4.7,-1.2,30.76,NNE,22,2.0,6.0,76,0.00,,,0.00,Wunderground v.1.15,2013-01-24 14:49:00,
2013-01-24 07:54:00,5.6,-0.1,30.76,NNE,22,2.0,4.0,77,0.00,,,0.00,Wunderground v.1.15,2013-01-24 14:54:00,
2013-01-24 07:59:00,6.3,0.3,30.75,NNE,22,3.0,5.0,76,0.00,,,0.00,Wunderground v.1.15,2013-01-24 14:59:00,
2013-01-24 08:04:00,7.1,1.1,30.76,NNE,22,4.0,4.0,76,0.00,,,0.00,Wunderground v.1.15,2013-01-24 15:04:00,
2013-01-24 08:09:00,7.3,0.7,30.75,NNE,22,5.0,5.0,74,0.00,,,0.00,Wunderground v.1.15,2013-01-24 15:09:00,
2013-01-24 08:14:00,6.9,0.1,30.75,NNE,22,4.0,5.0,73,0.00,,,0.00,Wunderground v.1.15,2013-01-24 15:14:00,
2013-01-24 08:19:00,6.1,-1.0,30.75,NNE,22,1.0,6.0,72,0.00,,,0.00,Wunderground v.1.15,2013-01-24 15:19:00,
2013-01-24 08:24:00,5.6,-1.8,30.75,NNE,22,3.0,4.0,71,0.00,,,0.00,Wunderground v.1.15,2013-01-24 15:24:00,
2013-01-24 08:29:00,5.2,-1.9,30.75,NNE,22,3.0,4.0,72,0.00,,,0.00,Wunderground v.1.15,2013-01-24 15:29:00,
2013-01-24 08:34:00,5.1,-2.0,30.77,NNE,22,4.0,5.0,72,0.00,,,0.00,Wunderground v.1.15,2013-01-24 15:34:00,
2013-01-24 08:39:00,6.1,-0.4,30.76,NNE,22,3.0,6.0,74,0.00,,,0.00,Wunderground v.1.15,2013-01-24 15:39:00,
2013-01-24 08:44:00,7.0,0.7,30.75,NNE,22,2.0,4.0,75,0.00,,,0.00,Wunderground v.1.15,2013-01-24 15:44:00,
2013-01-24 08:49:00,7.7,1.4,30.75,NNE,22,3.0,4.0,75,0.00,,,0.00,Wunderground v.1.15,2013-01-24 15:49:00,
2013-01-24 08:54:00,8.3,2.0,30.77,NNE,22,1.0,3.0,75,0.00,,,0.00,Wunderground v.1.15,2013-01-24 15:54:00,
2013-01-24 08:59:00,9.1,2.8,30.76,NNE,22,1.0,3.0,75,0.00,,,0.00,Wunderground v.1.15,2013-01-24 15:59:00,
2013-01-24 09:04:00,9.3,2.4,30.76,NNE,22,0.0,2.0,73,0.00,,,0.00,Wunderground v.1.15,2013-01-24 16:04:00,
2013-01-24 09:09:00,9.1,1.9,30.75,NNE,22,2.0,2.0,72,0.00,,,0.00,Wunderground v.1.15,2013-01-24 16:09:00,
2013-01-24 09:14:00,8.8,1.6,30.75,NNE,22,0.0,2.0,72,0.00,,,0.00,Wunderground v.1.15,2013-01-24 16:14:00,
2013-01-24 09:19:00,9.2,2.3,30.75,NNE,22,0.0,2.0,73,0.00,,,0.00,Wunderground v.1.15,2013-01-24 16:19:00,
2013-01-24 09:24:00,10.1,3.5,30.75,NNE,22,0.0,0.0,74,0.00,,,0.00,Wunderground v.1.15,2013-01-24 16:24:00,
2013-01-24 09:29:00,11.6,5.2,30.75,NNE,20,3.0,4.0,75,0.00,,,0.00,Wunderground v.1.15,2013-01-24 16:29:00,
2013-01-24 09:34:00,12.6,5.6,30.75,NNE,20,0.0,3.0,73,0.00,,,0.00,Wunderground v.1.15,2013-01-24 16:34:00,
2013-01-24 09:39:00,13.7,6.6,30.75,NNE,20,0.0,3.0,73,0.00,,,0.00,Wunderground v.1.15,2013-01-24 16:39:00,
2013-01-24 09:44:00,14.3,6.9,30.75,NNE,19,0.0,1.0,72,0.00,,,0.00,Wunderground v.1.15,2013-01-24 16:44:00,
2013-01-24 09:50:00,14.8,7.1,30.74,NNE,20,0.0,0.0,71,0.00,,,0.00,Wunderground v.1.15,2013-01-24 16:50:00,
2013-01-24 09:55:00,15.4,7.7,30.74,NNE,20,0.0,2.0,71,0.00,,,0.00,Wunderground v.1.15,2013-01-24 16:55:00,
2013-01-24 10:00:00,15.8,7.7,30.74,NNE,21,2.0,2.0,70,0.00,,,0.00,Wunderground v.1.15,2013-01-24 17:00:00,
2013-01-24 10:05:00,15.5,7.5,30.75,NNE,21,0.0,2.0,70,0.00,,,0.00,Wunderground v.1.15,2013-01-24 17:05:00,
2013-01-24 10:10:00,15.1,7.4,30.75,NNE,21,0.0,1.0,71,0.00,,,0.00,Wunderground v.1.15,2013-01-24 17:10:00,
2013-01-24 10:15:00,15.1,7.7,30.76,NNE,21,2.0,3.0,72,0.00,,,0.00,Wunderground v.1.15,2013-01-24 17:15:00,
2013-01-24 10:20:00,15.2,7.8,30.75,NNE,21,3.0,3.0,72,0.00,,,0.00,Wunderground v.1.15,2013-01-24 17:20:00,
2013-01-24 10:25:00,15.7,8.3,30.74,NNE,21,0.0,3.0,72,0.00,,,0.00,Wunderground v.1.15,2013-01-24 17:25:00,
2013-01-24 10:30:00,16.5,9.4,30.74,NNE,21,0.0,1.0,73,0.00,,,0.00,Wunderground v.1.15,2013-01-24 17:30:00,
2013-01-24 10:35:00,17.3,9.8,30.74,NNE,22,0.0,2.0,72,0.00,,,0.00,Wunderground v.1.15,2013-01-24 17:35:00,
2013-01-24 10:40:00,17.5,9.4,30.74,NNE,22,0.0,1.0,70,0.00,,,0.00,Wunderground v.1.15,2013-01-24 17:40:00,
2013-01-24 10:45:00,17.5,9.1,30.74,NNE,22,0.0,1.0,69,0.00,,,0.00,Wunderground v.1.15,2013-01-24 17:45:00,
2013-01-24 10:50:00,18.1,9.6,30.73,NNE,21,1.0,1.0,69,0.00,,,0.00,Wunderground v.1.15,2013-01-24 17:50:00,
2013-01-24 10:55:00,18.5,10.0,30.73,NNE,23,2.0,3.0,69,0.00,,,0.00,Wunderground v.1.15,2013-01-24 17:55:00,
2013-01-24 11:00:00,18.9,10.1,30.72,East,94,2.0,2.0,68,0.00,,,0.00,Wunderground v.1.15,2013-01-24 18:00:00,
2013-01-24 11:05:00,19.5,11.3,30.71,East,94,0.0,3.0,70,0.00,,,0.00,Wunderground v.1.15,2013-01-24 18:05:00,
2013-01-24 11:10:00,20.0,11.5,30.71,East,101,1.0,5.0,69,0.00,,,0.00,Wunderground v.1.15,2013-01-24 18:10:00,
2013-01-24 11:15:00,20.5,11.9,30.71,East,101,5.0,5.0,69,0.00,,,0.00,Wunderground v.1.15,2013-01-24 18:15:00,
2013-01-24 11:20:00,20.9,12.0,30.70,East,101,5.0,7.0,68,0.00,,,0.00,Wunderground v.1.15,2013-01-24 18:20:00,
2013-01-24 11:25:00,21.1,12.5,30.70,East,101,3.0,7.0,69,0.00,,,0.00,Wunderground v.1.15,2013-01-24 18:25:00,
2013-01-24 11:30:00,21.9,13.3,30.69,East,101,2.0,5.0,69,0.00,,,0.00,Wunderground v.1.15,2013-01-24 18:30:00,
2013-01-24 11:35:00,23.2,13.5,30.68,East,101,2.0,5.0,66,0.00,,,0.00,Wunderground v.1.15,2013-01-24 18:35:00,
2013-01-24 11:40:00,24.6,14.5,30.68,East,101,3.0,5.0,65,0.00,,,0.00,Wunderground v.1.15,2013-01-24 18:40:00,
2013-01-24 11:45:00,25.2,14.7,30.67,East,101,5.0,5.0,64,0.00,,,0.00,Wunderground v.1.15,2013-01-24 18:45:00,
2013-01-24 11:50:00,26.0,15.5,30.66,ESE,114,0.0,3.0,64,0.00,,,0.00,Wunderground v.1.15,2013-01-24 18:50:00,
2013-01-24 11:55:00,27.1,16.9,30.66,ESE,114,2.0,3.0,65,0.00,,,0.00,Wunderground v.1.15,2013-01-24 18:55:00,
2013-01-24 12:00:00,28.2,16.8,30.66,ESE,114,0.0,2.0,62,0.00,,,0.00,Wunderground v.1.15,2013-01-24 19:00:00,
2013-01-24 12:05:00,28.5,16.7,30.65,ESE,115,2.0,4.0,61,0.00,,,0.00,Wunderground v.1.15,2013-01-24 19:05:00,
2013-01-24 12:10:00,29.0,16.1,30.65,ESE,117,0.0,1.0,58,0.00,,,0.00,Wunderground v.1.15,2013-01-24 19:10:00,
2013-01-24 12:15:00,30.1,18.6,30.65,SE,142,4.0,5.0,62,0.00,,,0.00,Wunderground v.1.15,2013-01-24 19:15:00,
2013-01-24 12:20:00,30.7,16.8,30.64,SE,140,0.0,2.0,56,0.00,,,0.00,Wunderground v.1.15,2013-01-24 19:20:00,
2013-01-24 12:26:00,30.2,16.8,30.64,SE,140,3.0,3.0,57,0.00,,,0.00,Wunderground v.1.15,2013-01-24 19:26:00,
2013-01-24 12:31:00,30.6,18.0,30.63,SE,140,1.0,1.0,59,0.00,,,0.00,Wunderground v.1.15,2013-01-24 19:31:00,
2013-01-24 12:36:00,31.1,18.0,30.63,SE,140,0.0,1.0,58,0.00,,,0.00,Wunderground v.1.15,2013-01-24 19:36:00,
2013-01-24 12:41:00,32.0,19.3,30.62,SE,140,0.0,3.0,59,0.00,,,0.00,Wunderground v.1.15,2013-01-24 19:41:00,
2013-01-24 12:46:00,33.0,18.1,30.62,SE,140,0.0,3.0,54,0.00,,,0.00,Wunderground v.1.15,2013-01-24 19:46:00,
2013-01-24 12:51:00,33.4,18.5,30.62,SE,140,0.0,0.0,54,0.00,,,0.00,Wunderground v.1.15,2013-01-24 19:51:00,
2013-01-24 12:56:00,33.8,19.3,30.61,SE,140,0.0,4.0,55,0.00,,,0.00,Wunderground v.1.15,2013-01-24 19:56:00,
2013-01-24 13:01:00,34.1,19.6,30.61,SE,140,0.0,0.0,55,0.00,,,0.00,Wunderground v.1.15,2013-01-24 20:01:00,
2013-01-24 13:06:00,34.1,18.3,30.60,SE,140,0.0,0.0,52,0.00,,,0.00,Wunderground v.1.15,2013-01-24 20:06:00,
2013-01-24 13:11:00,33.4,18.9,30.59,SE,140,0.0,0.0,55,0.00,,,0.00,Wunderground v.1.15,2013-01-24 20:11:00,
2013-01-24 13:16:00,32.8,18.4,30.59,SE,140,0.0,0.0,55,0.00,,,0.00,Wunderground v.1.15,2013-01-24 20:16:00,
2013-01-24 13:21:00,32.1,17.7,30.59,SE,139,0.0,0.0,55,0.00,,,0.00,Wunderground v.1.15,2013-01-24 20:21:00,
2013-01-24 13:26:00,31.6,18.1,30.59,SE,140,0.0,0.0,57,0.00,,,0.00,Wunderground v.1.15,2013-01-24 20:26:00,
2013-01-24 13:31:00,31.5,18.0,30.59,SE,140,0.0,0.0,57,0.00,,,0.00,Wunderground v.1.15,2013-01-24 20:31:00,
2013-01-24 13:36:00,31.3,18.6,30.59,SE,139,0.0,0.0,59,0.00,,,0.00,Wunderground v.1.15,2013-01-24 20:36:00,
2013-01-24 13:41:00,31.1,18.0,30.59,SE,138,0.0,2.0,58,0.00,,,0.00,Wunderground v.1.15,2013-01-24 20:41:00,
2013-01-24 13:46:00,30.8,19.3,30.58,SE,138,0.0,2.0,62,0.00,,,0.00,Wunderground v.1.15,2013-01-24 20:46:00,
2013-01-24 13:51:00,31.8,19.1,30.58,SE,139,1.0,1.0,59,0.00,,,0.00,Wunderground v.1.15,2013-01-24 20:51:00,
2013-01-24 13:56:00,32.8,20.8,30.57,SE,139,0.0,2.0,61,0.00,,,0.00,Wunderground v.1.15,2013-01-24 20:56:00,
2013-01-24 14:01:00,34.1,21.3,30.58,SE,139,0.0,2.0,59,0.00,,,0.00,Wunderground v.1.15,2013-01-24 21:01:00,
2013-01-24 14:06:00,33.2,19.2,30.57,SE,138,0.0,3.0,56,0.00,,,0.00,Wunderground v.1.15,2013-01-24 21:06:00,
2013-01-24 14:11:00,32.8,20.0,30.57,SE,139,2.0,4.0,59,0.00,,,0.00,Wunderground v.1.15,2013-01-24 21:11:00,
2013-01-24 14:16:00,33.0,21.0,30.57,SE,138,0.0,4.0,61,0.00,,,0.00,Wunderground v.1.15,2013-01-24 21:16:00,
2013-01-24 14:21:00,33.3,20.5,30.56,SE,138,0.0,0.0,59,0.00,,,0.00,Wunderground v.1.15,2013-01-24 21:21:00,
2013-01-24 14:27:00,32.2,19.5,30.56,SE,139,0.0,4.0,59,0.00,,,0.00,Wunderground v.1.15,2013-01-24 21:27:00,
2013-01-24 14:32:00,31.4,19.5,30.57,SE,138,0.0,1.0,61,0.00,,,0.00,Wunderground v.1.15,2013-01-24 21:32:00,
2013-01-24 14:37:00,31.2,19.3,30.56,SE,139,1.0,3.0,61,0.00,,,0.00,Wunderground v.1.15,2013-01-24 21:37:00,
2013-01-24 14:42:00,31.1,20.3,30.57,SE,139,3.0,4.0,64,0.00,,,0.00,Wunderground v.1.15,2013-01-24 21:42:00,
2013-01-24 14:47:00,30.6,19.5,30.57,SE,139,0.0,4.0,63,0.00,,,0.00,Wunderground v.1.15,2013-01-24 21:47:00,
2013-01-24 14:52:00,30.3,19.6,30.57,SE,138,0.0,2.0,64,0.00,,,0.00,Wunderground v.1.15,2013-01-24 21:52:00,
2013-01-24 14:57:00,30.8,19.7,30.57,SE,139,0.0,2.0,63,0.00,,,0.00,Wunderground v.1.15,2013-01-24 21:57:00,
2013-01-24 15:02:00,30.4,19.3,30.57,SE,139,0.0,0.0,63,0.00,,,0.00,Wunderground v.1.15,2013-01-24 22:02:00,
2013-01-24 15:07:00,30.1,19.4,30.57,SE,139,0.0,0.0,64,0.00,,,0.00,Wunderground v.1.15,2013-01-24 22:07:00,
2013-01-24 15:12:00,30.0,19.7,30.57,SE,138,0.0,0.0,65,0.00,,,0.00,Wunderground v.1.15,2013-01-24 22:12:00,
2013-01-24 15:17:00,29.5,19.5,30.57,SE,139,0.0,0.0,66,0.00,,,0.00,Wunderground v.1.15,2013-01-24 22:17:00,
2013-01-24 15:22:00,29.3,19.7,30.57,SE,139,1.0,3.0,67,0.00,,,0.00,Wunderground v.1.15,2013-01-24 22:22:00,
2013-01-24 15:27:00,28.8,19.6,30.57,SE,139,1.0,4.0,68,0.00,,,0.00,Wunderground v.1.15,2013-01-24 22:27:00,
2013-01-24 15:32:00,28.5,19.3,30.56,SE,138,1.0,4.0,68,0.00,,,0.00,Wunderground v.1.15,2013-01-24 22:32:00,
2013-01-24 15:37:00,28.2,19.0,30.56,SE,138,2.0,4.0,68,0.00,,,0.00,Wunderground v.1.15,2013-01-24 22:37:00,
2013-01-24 15:42:00,27.8,18.9,30.56,SE,139,2.0,2.0,69,0.00,,,0.00,Wunderground v.1.15,2013-01-24 22:42:00,
2013-01-24 15:47:00,27.6,18.8,30.56,SE,138,2.0,4.0,69,0.00,,,0.00,Wunderground v.1.15,2013-01-24 22:47:00,
2013-01-24 15:52:00,27.8,19.3,30.56,SE,139,0.0,1.0,70,0.00,,,0.00,Wunderground v.1.15,2013-01-24 22:52:00,
2013-01-24 15:57:00,27.9,19.0,30.56,SE,138,0.0,1.0,69,0.00,,,0.00,Wunderground v.1.15,2013-01-24 22:57:00,
2013-01-24 16:02:00,28.1,18.9,30.56,SE,138,0.0,0.0,68,0.00,,,0.00,Wunderground v.1.15,2013-01-24 23:02:00,
2013-01-24 16:07:00,28.6,19.7,30.56,SE,139,0.0,0.0,69,0.00,,,0.00,Wunderground v.1.15,2013-01-24 23:07:00,
2013-01-24 16:12:00,29.6,20.7,30.56,SE,139,0.0,0.0,69,0.00,,,0.00,Wunderground v.1.15,2013-01-24 23:12:00,
2013-01-24 16:17:00,30.7,21.0,30.56,SE,139,0.0,0.0,67,0.00,,,0.00,Wunderground v.1.15,2013-01-24 23:17:00,
2013-01-24 16:22:00,31.4,20.6,30.56,SE,139,0.0,0.0,64,0.00,,,0.00,Wunderground v.1.15,2013-01-24 23:22:00,
2013-01-24 16:28:00,30.6,19.1,30.56,SE,139,0.0,0.0,62,0.00,,,0.00,Wunderground v.1.15,2013-01-24 23:28:00,
2013-01-24 16:33:00,29.9,18.8,30.56,SE,138,0.0,0.0,63,0.00,,,0.00,Wunderground v.1.15,2013-01-24 23:33:00,
2013-01-24 16:38:00,29.7,18.6,30.56,SE,139,0.0,0.0,63,0.00,,,0.00,Wunderground v.1.15,2013-01-24 23:38:00,
2013-01-24 16:43:00,28.5,17.9,30.56,SE,139,2.0,3.0,64,0.00,,,0.00,Wunderground v.1.15,2013-01-24 23:43:00,
2013-01-24 16:48:00,28.1,17.8,30.57,SE,138,0.0,3.0,65,0.00,,,0.00,Wunderground v.1.15,2013-01-24 23:48:00,
2013-01-24 16:53:00,27.5,18.0,30.57,SE,139,0.0,1.0,67,0.00,,,0.00,Wunderground v.1.15,2013-01-24 23:53:00,
2013-01-24 16:58:00,27.3,17.8,30.57,SE,138,0.0,1.0,67,0.00,,,0.00,Wunderground v.1.15,2013-01-24 23:58:00,
2013-01-24 17:03:00,26.9,17.4,30.58,SE,138,2.0,2.0,67,0.00,,,0.00,Wunderground v.1.15,2013-01-25 00:03:00,
2013-01-24 17:08:00,25.6,16.5,30.58,SE,139,0.0,2.0,68,0.00,,,0.00,Wunderground v.1.15,2013-01-25 00:08:00,
2013-01-24 17:13:00,24.8,16.1,30.57,SE,139,0.0,3.0,69,0.00,,,0.00,Wunderground v.1.15,2013-01-25 00:13:00,
2013-01-24 17:18:00,24.2,16.1,30.57,SE,139,0.0,3.0,71,0.00,,,0.00,Wunderground v.1.15,2013-01-25 00:18:00,
2013-01-24 17:23:00,24.3,16.2,30.57,SE,138,2.0,2.0,71,0.00,,,0.00,Wunderground v.1.15,2013-01-25 00:23:00,
2013-01-24 17:28:00,23.8,15.4,30.57,SE,139,0.0,4.0,70,0.00,,,0.00,Wunderground v.1.15,2013-01-25 00:28:00,
2013-01-24 17:33:00,23.4,15.7,30.57,SE,139,0.0,2.0,72,0.00,,,0.00,Wunderground v.1.15,2013-01-25 00:33:00,
2013-01-24 17:38:00,23.3,15.3,30.57,SE,138,0.0,2.0,71,0.00,,,0.00,Wunderground v.1.15,2013-01-25 00:38:00,
2013-01-24 17:43:00,23.1,15.1,30.58,SE,139,0.0,2.0,71,0.00,,,0.00,Wunderground v.1.15,2013-01-25 00:43:00,
2013-01-24 17:48:00,22.3,14.0,30.58,SE,139,2.0,4.0,70,0.00,,,0.00,Wunderground v.1.15,2013-01-25 00:48:00,
2013-01-24 17:53:00,21.7,14.1,30.58,SE,139,0.0,2.0,72,0.00,,,0.00,Wunderground v.1.15,2013-01-25 00:53:00,
2013-01-24 17:58:00,21.1,13.5,30.58,SE,139,0.0,2.0,72,0.00,,,0.00,Wunderground v.1.15,2013-01-25 00:58:00,
2013-01-24 18:03:00,21.0,14.0,30.58,SE,138,0.0,0.0,74,0.00,,,0.00,Wunderground v.1.15,2013-01-25 01:03:00,
2013-01-24 18:08:00,21.4,14.4,30.58,SE,139,1.0,2.0,74,0.00,,,0.00,Wunderground v.1.15,2013-01-25 01:08:00,
2013-01-24 18:13:00,21.2,13.9,30.58,SE,138,0.0,2.0,73,0.00,,,0.00,Wunderground v.1.15,2013-01-25 01:13:00,
2013-01-24 18:18:00,21.0,13.1,30.58,SE,139,0.0,2.0,71,0.00,,,0.00,Wunderground v.1.15,2013-01-25 01:18:00,
2013-01-24 18:23:00,21.1,13.2,30.58,WSW,248,0.0,6.0,71,0.00,,,0.00,Wunderground v.1.15,2013-01-25 01:23:00,
2013-01-24 18:28:00,20.0,11.1,30.58,WSW,248,3.0,6.0,68,0.00,,,0.00,Wunderground v.1.15,2013-01-25 01:28:00,
2013-01-24 18:33:00,17.5,9.7,30.58,West,271,2.0,6.0,71,0.00,,,0.00,Wunderground v.1.15,2013-01-25 01:33:00,
2013-01-24 18:38:00,17.5,11.2,30.59,West,271,0.0,6.0,76,0.00,,,0.00,Wunderground v.1.15,2013-01-25 01:38:00,
2013-01-24 18:44:00,17.9,11.6,30.60,West,271,2.0,4.0,76,0.00,,,0.00,Wunderground v.1.15,2013-01-25 01:44:00,
2013-01-24 18:49:00,18.0,12.0,30.60,West,271,0.0,4.0,77,0.00,,,0.00,Wunderground v.1.15,2013-01-25 01:49:00,
2013-01-24 18:54:00,17.9,11.9,30.60,West,271,1.0,3.0,77,0.00,,,0.00,Wunderground v.1.15,2013-01-25 01:54:00,
2013-01-24 18:59:00,18.0,12.6,30.59,West,271,2.0,3.0,79,0.00,,,0.00,Wunderground v.1.15,2013-01-25 01:59:00,
2013-01-24 19:04:00,17.1,11.1,30.58,West,271,0.0,4.0,77,0.00,,,0.00,Wunderground v.1.15,2013-01-25 02:04:00,
2013-01-24 19:09:00,17.8,12.7,30.59,West,271,2.0,4.0,80,0.00,,,0.00,Wunderground v.1.15,2013-01-25 02:09:00,
2013-01-24 19:14:00,18.6,13.7,30.61,West,271,3.0,4.0,81,0.00,,,0.00,Wunderground v.1.15,2013-01-25 02:14:00,
2013-01-24 19:19:00,18.8,13.7,30.61,West,272,2.0,4.0,80,0.00,,,0.00,Wunderground v.1.15,2013-01-25 02:19:00,
2013-01-24 19:24:00,17.8,11.8,30.61,North,360,1.0,5.0,77,0.00,,,0.00,Wunderground v.1.15,2013-01-25 02:24:00,
2013-01-24 19:29:00,16.5,10.3,30.61,North,5,5.0,7.0,76,0.00,,,0.00,Wunderground v.1.15,2013-01-25 02:29:00,
2013-01-24 19:34:00,15.9,10.3,30.61,North,5,3.0,7.0,78,0.00,,,0.00,Wunderground v.1.15,2013-01-25 02:34:00,
2013-01-24 19:39:00,16.4,11.3,30.62,North,5,4.0,7.0,80,0.00,,,0.00,Wunderground v.1.15,2013-01-25 02:39:00,
2013-01-24 19:44:00,16.9,12.1,30.63,North,5,0.0,5.0,81,0.00,,,0.00,Wunderground v.1.15,2013-01-25 02:44:00,
2013-01-24 19:49:00,17.1,12.3,30.63,North,5,2.0,5.0,81,0.00,,,0.00,Wunderground v.1.15,2013-01-25 02:49:00,
2013-01-24 19:54:00,17.4,12.6,30.64,North,5,1.0,5.0,81,0.00,,,0.00,Wunderground v.1.15,2013-01-25 02:54:00,
2013-01-24 19:59:00,17.4,12.6,30.63,North,360,0.0,5.0,81,0.00,,,0.00,Wunderground v.1.15,2013-01-25 02:59:00,
2013-01-24 20:04:00,16.8,11.4,30.62,North,360,0.0,2.0,79,0.00,,,0.00,Wunderground v.1.15,2013-01-25 03:04:00,
2013-01-24 20:09:00,17.6,12.8,30.61,North,5,0.0,2.0,81,0.00,,,0.00,Wunderground v.1.15,2013-01-25 03:09:00,
2013-01-24 20:14:00,18.3,13.4,30.61,North,5,1.0,5.0,81,0.00,,,0.00,Wunderground v.1.15,2013-01-25 03:14:00,
2013-01-24 20:19:00,16.9,11.5,30.60,North,5,2.0,6.0,79,0.00,,,0.00,Wunderground v.1.15,2013-01-25 03:19:00,
2013-01-24 20:24:00,16.7,11.3,30.61,North,360,4.0,4.0,79,0.00,,,0.00,Wunderground v.1.15,2013-01-25 03:24:00,
2013-01-24 20:29:00,16.8,11.7,30.63,North,5,4.0,5.0,80,0.00,,,0.00,Wunderground v.1.15,2013-01-25 03:29:00,
2013-01-24 20:34:00,16.5,11.4,30.63,North,5,2.0,6.0,80,0.00,,,0.00,Wunderground v.1.15,2013-01-25 03:34:00,
2013-01-24 20:39:00,16.3,11.2,30.61,North,5,5.0,6.0,80,0.00,,,0.00,Wunderground v.1.15,2013-01-25 03:39:00,
2013-01-24 20:44:00,15.5,10.1,30.61,North,360,2.0,5.0,79,0.00,,,0.00,Wunderground v.1.15,2013-01-25 03:44:00,
2013-01-24 20:49:00,15.3,10.2,30.61,North,360,4.0,5.0,80,0.00,,,0.00,Wunderground v.1.15,2013-01-25 03:49:00,
2013-01-24 20:54:00,15.1,10.0,30.61,North,5,4.0,5.0,80,0.00,,,0.00,Wunderground v.1.15,2013-01-25 03:54:00,
2013-01-24 20:59:00,15.5,10.7,30.61,North,360,4.0,5.0,81,0.00,,,0.00,Wunderground v.1.15,2013-01-25 03:59:00,
2013-01-24 21:04:00,15.9,11.1,30.61,North,5,6.0,6.0,81,0.00,,,0.00,Wunderground v.1.15,2013-01-25 04:04:00,
2013-01-24 21:10:00,15.8,11.0,30.61,North,360,3.0,5.0,81,0.00,,,0.00,Wunderground v.1.15,2013-01-25 04:10:00,
2013-01-24 21:14:00,16.0,11.2,30.61,North,5,3.0,5.0,81,0.00,,,0.00,Wunderground v.1.15,2013-01-25 04:14:00,
2013-01-24 21:19:00,16.9,12.4,30.61,North,5,2.0,3.0,82,0.00,,,0.00,Wunderground v.1.15,2013-01-25 04:19:00,
2013-01-24 21:25:00,17.2,12.4,30.61,North,360,4.0,4.0,81,0.00,,,0.00,Wunderground v.1.15,2013-01-25 04:25:00,
2013-01-24 21:30:00,17.7,12.9,30.61,North,360,2.0,3.0,81,0.00,,,0.00,Wunderground v.1.15,2013-01-25 04:30:00,
2013-01-24 21:35:00,18.8,14.2,30.60,North,5,4.0,4.0,82,0.00,,,0.00,Wunderground v.1.15,2013-01-25 04:35:00,
2013-01-24 21:40:00,19.4,14.5,30.61,NW,321,6.0,6.0,81,0.00,,,0.00,Wunderground v.1.15,2013-01-25 04:40:00,
2013-01-24 21:45:00,20.1,15.2,30.61,NW,317,3.0,6.0,81,0.00,,,0.00,Wunderground v.1.15,2013-01-25 04:45:00,
2013-01-24 21:50:00,19.7,13.7,30.62,NW,317,4.0,4.0,77,0.00,,,0.00,Wunderground v.1.15,2013-01-25 04:50:00,
2013-01-24 21:55:00,19.2,13.2,30.62,NW,317,4.0,6.0,77,0.00,,,0.00,Wunderground v.1.15,2013-01-25 04:55:00,
2013-01-24 22:01:00,19.3,13.6,30.61,NW,317,4.0,4.0,78,0.00,,,0.00,Wunderground v.1.15,2013-01-25 05:01:00,
2013-01-24 22:02:00,19.2,13.2,30.61,NW,317,5.0,5.0,77,0.00,,,0.00,Wunderground v.1.15,2013-01-25 05:02:00,
2013-01-24 22:03:00,19.1,13.1,30.61,NW,317,5.0,6.0,77,0.00,,,0.00,Wunderground v.1.15,2013-01-25 05:03:00,
2013-01-24 22:08:00,19.0,13.0,30.62,NW,310,6.0,7.0,77,0.00,,,0.00,Wunderground v.1.15,2013-01-25 05:08:00,
2013-01-24 22:13:00,18.5,11.9,30.62,NW,310,1.0,5.0,75,0.00,,,0.00,Wunderground v.1.15,2013-01-25 05:13:00,
2013-01-24 22:18:00,17.5,10.3,30.62,NW,310,2.0,5.0,73,0.00,,,0.00,Wunderground v.1.15,2013-01-25 05:18:00,
2013-01-24 22:23:00,16.3,8.9,30.62,NW,310,2.0,3.0,72,0.00,,,0.00,Wunderground v.1.15,2013-01-25 05:23:00,
2013-01-24 22:28:00,15.2,8.1,30.62,NW,310,2.0,3.0,73,0.00,,,0.00,Wunderground v.1.15,2013-01-25 05:28:00,
2013-01-24 22:33:00,14.0,7.2,30.62,NW,310,1.0,2.0,74,0.00,,,0.00,Wunderground v.1.15,2013-01-25 05:33:00,
2013-01-24 22:38:00,13.7,7.2,30.62,NW,310,2.0,2.0,75,0.00,,,0.00,Wunderground v.1.15,2013-01-25 05:38:00,
2013-01-24 22:43:00,13.8,7.9,30.62,NW,310,2.0,3.0,77,0.00,,,0.00,Wunderground v.1.15,2013-01-25 05:43:00,
2013-01-24 22:48:00,13.7,7.8,30.62,NW,310,2.0,3.0,77,0.00,,,0.00,Wunderground v.1.15,2013-01-25 05:48:00,
2013-01-24 22:53:00,13.4,7.5,30.61,NW,310,4.0,5.0,77,0.00,,,0.00,Wunderground v.1.15,2013-01-25 05:53:00,
2013-01-24 22:58:00,14.4,9.1,30.61,NW,310,3.0,5.0,79,0.00,,,0.00,Wunderground v.1.15,2013-01-25 05:58:00,
2013-01-24 23:03:00,16.0,10.9,30.61,NW,310,4.0,6.0,80,0.00,,,0.00,Wunderground v.1.15,2013-01-25 06:03:00,
2013-01-24 23:08:00,16.2,10.5,30.61,NW,310,3.0,6.0,78,0.00,,,0.00,Wunderground v.1.15,2013-01-25 06:08:00,
2013-01-24 23:13:00,15.3,9.1,30.60,South,186,3.0,5.0,76,0.00,,,0.00,Wunderground v.1.15,2013-01-25 06:13:00,
2013-01-24 23:18:00,15.3,9.1,30.60,South,182,2.0,5.0,76,0.00,,,0.00,Wunderground v.1.15,2013-01-25 06:18:00,
2013-01-24 23:23:00,15.1,8.9,30.60,SSE,159,0.0,4.0,76,0.00,,,0.00,Wunderground v.1.15,2013-01-25 06:23:00,
2013-01-24 23:28:00,14.6,8.4,30.60,SSE,159,2.0,4.0,76,0.00,,,0.00,Wunderground v.1.15,2013-01-25 06:28:00,
2013-01-24 23:33:00,14.3,8.1,30.60,SSE,159,2.0,3.0,76,0.00,,,0.00,Wunderground v.1.15,2013-01-25 06:33:00,
2013-01-24 23:38:00,14.0,7.8,30.60,SSE,159,3.0,4.0,76,0.00,,,0.00,Wunderground v.1.15,2013-01-25 06:38:00,
2013-01-24 23:43:00,15.1,9.5,30.60,SSE,159,1.0,4.0,78,0.00,,,0.00,Wunderground v.1.15,2013-01-25 06:43:00,
2013-01-24 23:48:00,16.3,10.9,30.60,SSE,159,0.0,4.0,79,0.00,,,0.00,Wunderground v.1.15,2013-01-25 06:48:00,
2013-01-24 23:53:00,16.7,11.3,30.60,SSE,159,0.0,2.0,79,0.00,,,0.00,Wunderground v.1.15,2013-01-25 06:53:00,
2013-01-24 23:58:00,16.3,10.6,30.60,SSE,159,0.0,2.0,78,0.00,,,0.00,Wunderground v.1.15,2013-01-25 06:58:00,